createdAt,value
2022-12-25T00:00:15.136Z,99673.50
2022-12-25T00:00:30.548Z,99670.94
2022-12-25T00:00:42.654Z,99676.06
2022-12-25T00:00:54.743Z,99671.69
2022-12-25T00:01:21.653Z,99675.16
2022-12-25T00:01:33.612Z,99670.84
2022-12-25T00:01:45.561Z,99675.97
2022-12-25T00:01:57.483Z,99674.19
2022-12-25T00:02:09.435Z,99681.06
2022-12-25T00:02:21.528Z,99679.38
2022-12-25T00:02:33.543Z,99680.22
2022-12-25T00:02:45.619Z,99670.66
2022-12-25T00:02:58.060Z,99671.47
2022-12-25T00:03:10.189Z,99672.25
2022-12-25T00:03:22.371Z,99671.34
2022-12-25T00:03:34.523Z,99674.75
2022-12-25T00:03:47.020Z,99677.31
2022-12-25T00:03:59.220Z,99677.41
2022-12-25T00:04:11.960Z,99675.63
2022-12-25T00:04:23.910Z,99686.09
2022-12-25T00:04:35.833Z,99681.81
2022-12-25T00:04:47.779Z,99682.81
2022-12-25T00:04:59.763Z,99681.06
2022-12-25T00:05:11.676Z,99685.41
2022-12-25T00:05:23.639Z,99679.28
2022-12-25T00:05:38.584Z,99680.13
2022-12-25T00:05:50.481Z,99677.50
2022-12-25T00:06:02.490Z,99675.75
2022-12-25T00:06:14.512Z,99682.66
2022-12-25T00:06:26.837Z,99681.75
2022-12-25T00:06:38.780Z,99684.31
2022-12-25T00:06:50.678Z,99693.75
2022-12-25T00:07:02.640Z,99687.69
2022-12-25T00:07:14.634Z,99672.94
2022-12-25T00:07:26.690Z,99684.22
2022-12-25T00:07:38.666Z,99680.69
2022-12-25T00:07:50.618Z,99684.22
2022-12-25T00:08:02.698Z,99689.41
2022-12-25T00:08:14.659Z,99682.50
2022-12-25T00:08:26.645Z,99687.06
2022-12-25T00:08:39.604Z,99685.41
2022-12-25T00:08:51.693Z,99684.56
2022-12-25T00:09:03.839Z,99681.16
2022-12-25T00:09:15.728Z,99680.25
2022-12-25T00:09:27.804Z,99683.66
2022-12-25T00:09:39.745Z,99684.50
2022-12-25T00:09:51.706Z,99676.66
2022-12-25T00:10:04.485Z,99681.84
2022-12-25T00:10:16.537Z,99677.50
2022-12-25T00:10:28.493Z,99686.09
2022-12-25T00:10:45.368Z,99682.63
2022-12-25T00:10:59.399Z,99684.41
2022-12-25T00:11:13.600Z,99686.94
2022-12-25T00:11:25.516Z,99685.22
2022-12-25T00:11:38.082Z,99681.91
2022-12-25T00:11:50.023Z,99679.53
2022-12-25T00:12:01.921Z,99688.63
2022-12-25T00:12:13.893Z,99688.47
2022-12-25T00:12:25.877Z,99680.69
2022-12-25T00:12:37.879Z,99683.13
2022-12-25T00:12:49.837Z,99686.53
2022-12-25T00:13:01.860Z,99683.13
2022-12-25T00:13:13.781Z,99690.03
2022-12-25T00:13:26.095Z,99683.03
2022-12-25T00:13:38.386Z,99681.22
2022-12-25T00:13:51.227Z,99683.78
2022-12-25T00:14:03.297Z,99681.09
2022-12-25T00:14:15.268Z,99680.22
2022-12-25T00:14:27.252Z,99681.06
2022-12-25T00:14:39.162Z,99679.38
2022-12-25T00:14:51.106Z,99679.38
2022-12-25T00:15:03.420Z,99681.09
2022-12-25T00:15:15.471Z,99686.25
2022-12-25T00:15:27.801Z,99678.50
2022-12-25T00:15:41.540Z,99677.63
2022-12-25T00:15:54.296Z,99673.25
2022-12-25T00:16:15.754Z,99679.28
2022-12-25T00:16:27.941Z,99672.47
2022-12-25T00:16:39.965Z,99678.47
2022-12-25T00:16:51.959Z,99670.66
2022-12-25T00:17:04.092Z,99672.41
2022-12-25T00:17:16.321Z,99674.09
2022-12-25T00:17:28.218Z,99668.91
2022-12-25T00:17:40.125Z,99674.03
2022-12-25T00:17:52.137Z,99677.41
2022-12-25T00:18:04.089Z,99678.25
2022-12-25T00:18:16.000Z,99670.50
2022-12-25T00:18:27.929Z,99667.88
2022-12-25T00:18:39.895Z,99673.91
2022-12-25T00:18:52.226Z,99671.41
2022-12-25T00:19:04.184Z,99670.50
2022-12-25T00:19:16.158Z,99665.41
2022-12-25T00:19:28.091Z,99667.09
2022-12-25T00:19:40.064Z,99670.63
2022-12-25T00:19:52.111Z,99671.63
2022-12-25T00:20:04.457Z,99670.66
2022-12-25T00:20:16.452Z,99666.44
2022-12-25T00:20:28.354Z,99670.66
2022-12-25T00:20:40.285Z,99674.09
2022-12-25T00:21:00.736Z,99667.94
2022-12-25T00:21:14.085Z,99671.34
2022-12-25T00:21:26.247Z,99673.06
2022-12-25T00:21:38.186Z,99668.72
2022-12-25T00:21:50.128Z,99660.88
2022-12-25T00:22:02.104Z,99668.63
2022-12-25T00:22:14.001Z,99674.66
2022-12-25T00:22:25.953Z,99665.13
2022-12-25T00:22:37.941Z,99668.50
2022-12-25T00:22:49.914Z,99667.66
2022-12-25T00:23:01.856Z,99664.22
2022-12-25T00:23:13.816Z,99669.47
2022-12-25T00:23:26.909Z,99672.09
2022-12-25T00:23:39.136Z,99660.88
2022-12-25T00:23:55.916Z,99670.41
2022-12-25T00:24:09.114Z,99672.91
2022-12-25T00:24:21.136Z,99659.91
2022-12-25T00:24:33.123Z,99665.03
2022-12-25T00:24:47.446Z,99662.44
2022-12-25T00:24:59.408Z,99665.88
2022-12-25T00:25:11.466Z,99666.72
2022-12-25T00:25:23.369Z,99671.03
2022-12-25T00:25:39.547Z,99661.53
2022-12-25T00:25:52.492Z,99665.84
2022-12-25T00:26:07.112Z,99668.44
2022-12-25T00:26:19.122Z,99666.72
2022-12-25T00:26:31.050Z,99671.94
2022-12-25T00:26:43.001Z,99669.34
2022-12-25T00:26:54.936Z,99672.03
2022-12-25T00:27:06.885Z,99672.03
2022-12-25T00:27:18.869Z,99669.47
2022-12-25T00:27:34.033Z,99670.31
2022-12-25T00:27:45.966Z,99669.47
2022-12-25T00:27:57.952Z,99672.06
2022-12-25T00:28:09.904Z,99666.91
2022-12-25T00:28:23.382Z,99662.56
2022-12-25T00:28:36.013Z,99669.50
2022-12-25T00:28:48.050Z,99661.72
2022-12-25T00:29:00.056Z,99669.47
2022-12-25T00:29:12.782Z,99659.91
2022-12-25T00:29:24.792Z,99661.72
2022-12-25T00:29:36.901Z,99668.72
2022-12-25T00:29:48.827Z,99657.44
2022-12-25T00:30:01.747Z,99659.28
2022-12-25T00:30:16.727Z,99659.28
2022-12-25T00:30:28.689Z,99664.44
2022-12-25T00:30:41.091Z,99667.88
2022-12-25T00:30:53.086Z,99660.88
2022-12-25T00:31:13.585Z,99661.72
2022-12-25T00:31:26.180Z,99658.28
2022-12-25T00:31:38.437Z,99656.53
2022-12-25T00:31:50.433Z,99657.44
2022-12-25T00:32:02.376Z,99663.44
2022-12-25T00:32:14.424Z,99659.91
2022-12-25T00:32:26.390Z,99665.91
2022-12-25T00:32:38.525Z,99665.03
2022-12-25T00:32:50.520Z,99661.53
2022-12-25T00:33:02.401Z,99661.47
2022-12-25T00:33:15.064Z,99650.25
2022-12-25T00:33:27.009Z,99653.69
2022-12-25T00:33:41.067Z,99655.44
2022-12-25T00:33:53.600Z,99657.16
2022-12-25T00:34:05.560Z,99653.03
2022-12-25T00:34:17.539Z,99663.63
2022-12-25T00:34:29.515Z,99661.16
2022-12-25T00:34:41.430Z,99660.38
2022-12-25T00:34:53.362Z,99668.44
2022-12-25T00:35:05.796Z,99666.03
2022-12-25T00:35:17.847Z,99666.88
2022-12-25T00:35:29.783Z,99665.50
2022-12-25T00:35:41.878Z,99669.13
2022-12-25T00:35:58.596Z,99665.63
2022-12-25T00:36:11.592Z,99664.63
2022-12-25T00:36:23.732Z,99664.59
2022-12-25T00:36:41.332Z,99666.22
2022-12-25T00:36:53.833Z,99669.63
2022-12-25T00:37:05.755Z,99665.19
2022-12-25T00:37:17.836Z,99666.03
2022-12-25T00:37:29.738Z,99666.03
2022-12-25T00:37:41.799Z,99671.13
2022-12-25T00:37:53.742Z,99663.47
2022-12-25T00:38:05.797Z,99661.00
2022-12-25T00:38:17.733Z,99657.63
2022-12-25T00:38:29.684Z,99663.78
2022-12-25T00:38:42.545Z,99665.66
2022-12-25T00:38:54.551Z,99664.75
2022-12-25T00:39:07.300Z,99668.22
2022-12-25T00:39:19.317Z,99665.50
2022-12-25T00:39:31.356Z,99664.59
2022-12-25T00:39:43.262Z,99666.31
2022-12-25T00:39:55.154Z,99672.38
2022-12-25T00:40:07.763Z,99668.03
2022-12-25T00:40:19.686Z,99662.91
2022-12-25T00:40:31.717Z,99664.69
2022-12-25T00:40:44.199Z,99668.22
2022-12-25T00:40:56.396Z,99664.09
2022-12-25T00:41:11.484Z,99673.78
2022-12-25T00:41:42.945Z,99669.47
2022-12-25T00:42:13.443Z,99674.44
2022-12-25T00:42:26.912Z,99670.84
2022-12-25T00:42:38.970Z,99669.09
2022-12-25T00:42:51.269Z,99666.50
2022-12-25T00:43:03.308Z,99670.00
2022-12-25T00:43:15.629Z,99663.91
2022-12-25T00:43:27.570Z,99670.00
2022-12-25T00:43:41.927Z,99673.41
2022-12-25T00:43:53.811Z,99669.94
2022-12-25T00:44:07.143Z,99673.41
2022-12-25T00:44:19.053Z,99668.28
2022-12-25T00:44:31.084Z,99666.50
2022-12-25T00:44:43.066Z,99663.91
2022-12-25T00:44:55.061Z,99671.78
2022-12-25T00:45:07.675Z,99663.09
2022-12-25T00:45:19.856Z,99666.69
2022-12-25T00:45:31.973Z,99672.72
2022-12-25T00:45:44.119Z,99671.88
2022-12-25T00:46:01.410Z,99678.03
2022-12-25T00:46:13.695Z,99678.19
2022-12-25T00:46:26.722Z,99674.81
2022-12-25T00:46:39.326Z,99671.59
2022-12-25T00:46:51.426Z,99676.06
2022-12-25T00:47:04.174Z,99671.91
2022-12-25T00:47:17.910Z,99670.34
2022-12-25T00:47:30.324Z,99679.00
2022-12-25T00:47:42.380Z,99677.22
2022-12-25T00:47:54.487Z,99671.16
2022-12-25T00:48:07.026Z,99664.22
2022-12-25T00:48:19.119Z,99670.13
2022-12-25T00:48:31.667Z,99671.03
2022-12-25T00:48:47.426Z,99670.16
2022-12-25T00:49:00.507Z,99671.81
2022-12-25T00:49:13.496Z,99678.63
2022-12-25T00:49:25.575Z,99669.09
2022-12-25T00:49:37.627Z,99675.22
2022-12-25T00:49:49.673Z,99665.59
2022-12-25T00:50:01.864Z,99669.00
2022-12-25T00:50:14.147Z,99672.41
2022-12-25T00:50:26.232Z,99666.34
2022-12-25T00:50:38.947Z,99667.16
2022-12-25T00:50:58.992Z,99670.44
2022-12-25T00:51:12.223Z,99666.09
2022-12-25T00:51:24.282Z,99666.84
2022-12-25T00:51:36.561Z,99673.66
2022-12-25T00:51:52.807Z,99667.47
2022-12-25T00:52:05.140Z,99669.13
2022-12-25T00:52:17.259Z,99667.34
2022-12-25T00:52:29.371Z,99671.59
2022-12-25T00:52:41.616Z,99667.22
2022-12-25T00:52:53.647Z,99663.66
2022-12-25T00:53:05.768Z,99673.09
2022-12-25T00:53:17.760Z,99668.72
2022-12-25T00:53:30.243Z,99663.53
2022-12-25T00:53:42.343Z,99667.84
2022-12-25T00:53:54.433Z,99667.84
2022-12-25T00:54:06.694Z,99666.03
2022-12-25T00:54:19.944Z,99665.13
2022-12-25T00:54:31.905Z,99665.94
2022-12-25T00:54:43.879Z,99663.41
2022-12-25T00:54:55.778Z,99672.03
2022-12-25T00:55:07.925Z,99663.34
2022-12-25T00:55:19.846Z,99663.28
2022-12-25T00:55:31.734Z,99663.28
2022-12-25T00:55:43.653Z,99665.84
2022-12-25T00:56:06.729Z,99665.75
2022-12-25T00:56:18.695Z,99669.13
2022-12-25T00:56:30.640Z,99660.47
2022-12-25T00:56:42.572Z,99667.38
2022-12-25T00:56:54.565Z,99663.03
2022-12-25T00:57:06.473Z,99659.50
2022-12-25T00:57:18.395Z,99659.47
2022-12-25T00:57:30.373Z,99663.78
2022-12-25T00:57:42.309Z,99662.91
2022-12-25T00:57:54.321Z,99662.06
2022-12-25T00:58:06.310Z,99663.78
2022-12-25T00:58:18.295Z,99659.44
2022-12-25T00:58:32.677Z,99666.38
2022-12-25T00:58:44.603Z,99660.28
2022-12-25T00:58:56.538Z,99660.28
2022-12-25T00:59:08.856Z,99656.81
2022-12-25T00:59:21.537Z,99660.25
2022-12-25T00:59:34.574Z,99658.50
2022-12-25T00:59:46.511Z,99656.81
2022-12-25T00:59:58.388Z,99649.84
2022-12-25T01:00:10.817Z,99656.72
2022-12-25T01:00:22.949Z,99656.72
2022-12-25T01:00:34.918Z,99654.06
2022-12-25T01:00:48.460Z,99658.44
2022-12-25T01:01:00.713Z,99652.34
2022-12-25T01:01:12.778Z,99649.72
2022-12-25T01:01:24.960Z,99649.72
2022-12-25T01:01:38.128Z,99647.91
2022-12-25T01:01:50.519Z,99649.63
2022-12-25T01:02:21.363Z,99650.47
2022-12-25T01:02:33.502Z,99650.53
2022-12-25T01:02:45.565Z,99651.38
2022-12-25T01:02:57.744Z,99653.91
2022-12-25T01:03:09.820Z,99650.47
2022-12-25T01:03:22.356Z,99652.16
2022-12-25T01:03:34.292Z,99650.44
2022-12-25T01:03:46.261Z,99654.75
2022-12-25T01:03:58.458Z,99653.88
2022-12-25T01:04:11.483Z,99653.03
2022-12-25T01:04:23.409Z,99642.63
2022-12-25T01:04:35.444Z,99649.47
2022-12-25T01:04:47.610Z,99647.69
2022-12-25T01:04:59.507Z,99650.28
2022-12-25T01:05:11.438Z,99651.13
2022-12-25T01:05:23.341Z,99654.53
2022-12-25T01:05:35.315Z,99651.03
2022-12-25T01:06:02.193Z,99654.47
2022-12-25T01:06:14.238Z,99647.53
2022-12-25T01:06:26.497Z,99651.00
2022-12-25T01:06:39.737Z,99655.38
2022-12-25T01:06:51.614Z,99649.31
2022-12-25T01:07:03.501Z,99649.31
2022-12-25T01:07:16.864Z,99646.69
2022-12-25T01:07:28.866Z,99651.91
2022-12-25T01:07:40.985Z,99655.38
2022-12-25T01:07:53.065Z,99652.72
2022-12-25T01:08:06.049Z,99654.44
2022-12-25T01:08:18.075Z,99653.53
2022-12-25T01:08:33.349Z,99646.63
2022-12-25T01:09:03.815Z,99655.28
2022-12-25T01:09:34.170Z,99654.53
2022-12-25T01:10:05.598Z,99659.63
2022-12-25T01:10:23.304Z,99661.22
2022-12-25T01:10:35.390Z,99661.31
2022-12-25T01:10:54.371Z,99656.28
2022-12-25T01:11:08.443Z,99658.03
2022-12-25T01:11:20.370Z,99661.44
2022-12-25T01:11:32.527Z,99660.56
2022-12-25T01:11:45.002Z,99657.03
2022-12-25T01:11:56.971Z,99663.06
2022-12-25T01:12:09.009Z,99663.03
2022-12-25T01:12:21.014Z,99654.44
2022-12-25T01:12:34.651Z,99659.63
2022-12-25T01:12:46.635Z,99664.84
2022-12-25T01:12:58.620Z,99659.63
2022-12-25T01:13:10.691Z,99660.47
2022-12-25T01:13:23.116Z,99666.50
2022-12-25T01:13:37.444Z,99663.00
2022-12-25T01:13:49.542Z,99669.03
2022-12-25T01:14:01.502Z,99668.13
2022-12-25T01:14:14.159Z,99666.31
2022-12-25T01:14:26.091Z,99662.00
2022-12-25T01:14:38.105Z,99660.19
2022-12-25T01:14:50.325Z,99663.63
2022-12-25T01:15:03.075Z,99667.91
2022-12-25T01:15:15.062Z,99660.06
2022-12-25T01:15:27.164Z,99672.22
2022-12-25T01:15:39.101Z,99667.00
2022-12-25T01:15:52.602Z,99671.31
2022-12-25T01:16:09.692Z,99669.63
2022-12-25T01:16:21.798Z,99665.31
2022-12-25T01:16:33.998Z,99667.91
2022-12-25T01:16:46.064Z,99671.44
2022-12-25T01:16:58.090Z,99667.91
2022-12-25T01:17:10.077Z,99665.38
2022-12-25T01:17:22.376Z,99673.22
2022-12-25T01:17:34.735Z,99668.03
2022-12-25T01:17:46.720Z,99671.47
2022-12-25T01:18:05.736Z,99671.38
2022-12-25T01:18:24.823Z,99672.22
2022-12-25T01:18:37.282Z,99667.00
2022-12-25T01:18:49.343Z,99672.19
2022-12-25T01:19:01.691Z,99676.50
2022-12-25T01:19:13.617Z,99671.31
2022-12-25T01:19:25.610Z,99668.72
2022-12-25T01:19:37.634Z,99667.88
2022-12-25T01:19:49.750Z,99671.38
2022-12-25T01:20:02.383Z,99669.63
2022-12-25T01:20:16.366Z,99669.63
2022-12-25T01:20:28.406Z,99674.84
2022-12-25T01:20:40.419Z,99673.22
2022-12-25T01:20:52.373Z,99672.38
2022-12-25T01:21:11.936Z,99674.19
2022-12-25T01:21:24.310Z,99671.63
2022-12-25T01:21:36.262Z,99678.50
2022-12-25T01:21:48.211Z,99678.50
2022-12-25T01:22:00.146Z,99678.50
2022-12-25T01:22:12.070Z,99681.13
2022-12-25T01:22:24.073Z,99678.50
2022-12-25T01:22:36.090Z,99674.19
2022-12-25T01:22:48.016Z,99683.72
2022-12-25T01:22:59.987Z,99675.13
2022-12-25T01:23:12.268Z,99673.44
2022-12-25T01:23:24.170Z,99680.31
2022-12-25T01:23:36.716Z,99675.22
2022-12-25T01:23:52.385Z,99680.44
2022-12-25T01:24:04.521Z,99677.00
2022-12-25T01:24:16.467Z,99679.59
2022-12-25T01:24:28.410Z,99689.97
2022-12-25T01:24:40.321Z,99680.44
2022-12-25T01:24:52.279Z,99682.22
2022-12-25T01:25:05.543Z,99689.31
2022-12-25T01:25:17.522Z,99690.25
2022-12-25T01:25:29.466Z,99685.91
2022-12-25T01:25:42.115Z,99687.69
2022-12-25T01:25:54.062Z,99686.91
2022-12-25T01:26:07.361Z,99683.47
2022-12-25T01:26:23.250Z,99691.22
2022-12-25T01:26:48.162Z,99692.91
2022-12-25T01:27:00.093Z,99693.00
2022-12-25T01:27:12.085Z,99687.81
2022-12-25T01:27:24.153Z,99691.44
2022-12-25T01:27:36.344Z,99695.88
2022-12-25T01:27:48.253Z,99697.72
2022-12-25T01:28:02.771Z,99696.91
2022-12-25T01:28:16.089Z,99693.63
2022-12-25T01:28:28.032Z,99699.00
2022-12-25T01:28:40.396Z,99703.69
2022-12-25T01:28:52.816Z,99699.44
2022-12-25T01:29:04.749Z,99698.69
2022-12-25T01:29:16.664Z,99700.78
2022-12-25T01:29:28.581Z,99700.16
2022-12-25T01:29:40.543Z,99699.31
2022-12-25T01:29:52.484Z,99705.34
2022-12-25T01:30:05.555Z,99703.63
2022-12-25T01:30:17.551Z,99700.16
2022-12-25T01:30:29.542Z,99699.97
2022-12-25T01:30:48.612Z,99701.53
2022-12-25T01:31:00.709Z,99701.41
2022-12-25T01:31:15.420Z,99700.44
2022-12-25T01:31:27.476Z,99693.41
2022-12-25T01:31:39.506Z,99702.84
2022-12-25T01:31:54.542Z,99701.06
2022-12-25T01:32:07.058Z,99700.28
2022-12-25T01:32:19.139Z,99695.97
2022-12-25T01:32:31.185Z,99697.66
2022-12-25T01:32:43.164Z,99701.06
2022-12-25T01:32:55.141Z,99700.97
2022-12-25T01:33:07.228Z,99697.47
2022-12-25T01:33:19.381Z,99696.63
2022-12-25T01:33:31.697Z,99695.69
2022-12-25T01:33:44.488Z,99688.81
2022-12-25T01:33:56.496Z,99695.59
2022-12-25T01:34:08.466Z,99693.81
2022-12-25T01:34:20.435Z,99699.00
2022-12-25T01:34:32.382Z,99692.06
2022-12-25T01:34:44.269Z,99687.78
2022-12-25T01:34:57.226Z,99692.06
2022-12-25T01:35:09.350Z,99693.81
2022-12-25T01:35:21.365Z,99691.19
2022-12-25T01:35:33.346Z,99693.81
2022-12-25T01:35:45.348Z,99689.50
2022-12-25T01:35:58.605Z,99692.09
2022-12-25T01:36:25.241Z,99686.03
2022-12-25T01:36:37.159Z,99690.25
2022-12-25T01:36:49.053Z,99689.31
2022-12-25T01:37:01.090Z,99686.63
2022-12-25T01:37:13.035Z,99695.22
2022-12-25T01:37:25.391Z,99684.72
2022-12-25T01:37:37.485Z,99689.00
2022-12-25T01:37:50.884Z,99686.38
2022-12-25T01:38:02.789Z,99688.06
2022-12-25T01:38:14.847Z,99686.38
2022-12-25T01:38:27.302Z,99688.88
2022-12-25T01:38:39.203Z,99687.16
2022-12-25T01:38:52.601Z,99686.25
2022-12-25T01:39:05.144Z,99689.69
2022-12-25T01:39:17.061Z,99693.09
2022-12-25T01:39:29.269Z,99688.69
2022-12-25T01:39:41.291Z,99695.59
2022-12-25T01:39:53.339Z,99685.22
2022-12-25T01:40:05.987Z,99692.09
2022-12-25T01:40:18.210Z,99692.13
2022-12-25T01:40:30.149Z,99693.84
2022-12-25T01:40:42.419Z,99693.09
2022-12-25T01:40:54.384Z,99693.00
2022-12-25T01:41:06.661Z,99698.25
2022-12-25T01:41:20.803Z,99696.50
2022-12-25T01:41:32.787Z,99694.03
2022-12-25T01:41:44.799Z,99698.41
2022-12-25T01:41:56.801Z,99702.63
2022-12-25T01:42:20.301Z,99700.00
2022-12-25T01:42:32.252Z,99694.81
2022-12-25T01:42:44.835Z,99694.81
2022-12-25T01:42:56.828Z,99698.22
2022-12-25T01:43:20.825Z,99699.00
2022-12-25T01:43:34.000Z,99699.81
2022-12-25T01:44:06.265Z,99697.25
2022-12-25T01:44:18.163Z,99692.91
2022-12-25T01:44:35.869Z,99697.28
2022-12-25T01:44:48.426Z,99696.41
2022-12-25T01:45:30.609Z,99689.75
2022-12-25T01:45:44.267Z,99694.75
2022-12-25T01:45:57.661Z,99693.81
2022-12-25T01:46:09.590Z,99693.81
2022-12-25T01:46:21.567Z,99694.66
2022-12-25T01:46:34.613Z,99695.50
2022-12-25T01:46:46.582Z,99699.25
2022-12-25T01:46:58.533Z,99699.25
2022-12-25T01:47:10.495Z,99704.41
2022-12-25T01:47:22.429Z,99700.88
2022-12-25T01:47:34.434Z,99700.84
2022-12-25T01:47:46.395Z,99695.69
2022-12-25T01:47:58.689Z,99699.19
2022-12-25T01:48:18.454Z,99698.56
2022-12-25T01:48:36.000Z,99701.94
2022-12-25T01:48:48.886Z,99697.47
2022-12-25T01:49:11.398Z,99699.06
2022-12-25T01:49:25.801Z,99696.41
2022-12-25T01:49:39.449Z,99699.81
2022-12-25T01:49:51.554Z,99695.59
2022-12-25T01:50:04.566Z,99699.06
2022-12-25T01:50:17.172Z,99699.00
2022-12-25T01:50:29.581Z,99697.22
2022-12-25T01:50:45.992Z,99698.91
2022-12-25T01:51:01.999Z,99691.91
2022-12-25T01:51:35.695Z,99696.97
2022-12-25T01:51:54.431Z,99701.31
2022-12-25T01:52:16.482Z,99697.03
2022-12-25T01:52:31.725Z,99698.63
2022-12-25T01:52:44.597Z,99698.63
2022-12-25T01:52:57.755Z,99696.00
2022-12-25T01:53:10.234Z,99699.47
2022-12-25T01:53:23.636Z,99696.03
2022-12-25T01:53:35.703Z,99698.63
2022-12-25T01:53:47.809Z,99694.28
2022-12-25T01:54:05.616Z,99695.13
2022-12-25T01:54:28.964Z,99695.13
2022-12-25T01:54:52.884Z,99691.63
2022-12-25T01:55:05.389Z,99694.38
2022-12-25T01:55:17.676Z,99691.81
2022-12-25T01:55:30.358Z,99691.00
2022-12-25T01:55:45.425Z,99695.38
2022-12-25T01:56:03.486Z,99694.38
2022-12-25T01:56:15.406Z,99694.38
2022-12-25T01:56:29.064Z,99698.63
2022-12-25T01:56:43.404Z,99698.63
2022-12-25T01:56:59.663Z,99686.53
2022-12-25T01:57:25.273Z,99700.44
2022-12-25T01:57:44.487Z,99696.91
2022-12-25T01:58:06.368Z,99697.88
2022-12-25T01:58:26.400Z,99696.91
2022-12-25T01:58:54.441Z,99698.56
2022-12-25T01:59:35.422Z,99693.34
2022-12-25T01:59:50.396Z,99700.25
2022-12-25T02:00:04.512Z,99691.56
2022-12-25T02:00:16.864Z,99702.75
2022-12-25T02:00:28.930Z,99693.19
2022-12-25T02:00:40.995Z,99700.91
2022-12-25T02:00:53.566Z,99699.13
2022-12-25T02:01:05.800Z,99687.88
2022-12-25T02:01:18.025Z,99697.47
2022-12-25T02:01:30.121Z,99691.44
2022-12-25T02:01:42.332Z,99692.38
2022-12-25T02:01:54.609Z,99695.88
2022-12-25T02:02:07.015Z,99688.16
2022-12-25T02:02:20.251Z,99701.03
2022-12-25T02:02:32.607Z,99691.56
2022-12-25T02:02:45.738Z,99694.16
2022-12-25T02:02:58.322Z,99699.34
2022-12-25T02:03:10.400Z,99691.63
2022-12-25T02:03:22.727Z,99691.72
2022-12-25T02:03:34.861Z,99690.25
2022-12-25T02:03:46.851Z,99694.50
2022-12-25T02:04:06.804Z,99696.22
2022-12-25T02:04:38.878Z,99693.81
2022-12-25T02:04:58.359Z,99690.84
2022-12-25T02:05:21.872Z,99695.97
2022-12-25T02:05:34.875Z,99687.16
2022-12-25T02:05:47.886Z,99690.47
2022-12-25T02:06:00.733Z,99691.25
2022-12-25T02:06:12.707Z,99687.81
2022-12-25T02:06:25.023Z,99692.91
2022-12-25T02:06:36.937Z,99688.50
2022-12-25T02:06:51.444Z,99686.72
2022-12-25T02:07:03.413Z,99686.63
2022-12-25T02:07:22.044Z,99684.84
2022-12-25T02:07:37.342Z,99686.47
2022-12-25T02:07:50.629Z,99685.59
2022-12-25T02:08:09.170Z,99681.25
2022-12-25T02:08:22.926Z,99686.41
2022-12-25T02:08:34.904Z,99679.44
2022-12-25T02:08:46.944Z,99683.78
2022-12-25T02:08:59.246Z,99692.41
2022-12-25T02:09:11.250Z,99680.25
2022-12-25T02:09:23.206Z,99684.53
2022-12-25T02:09:35.654Z,99688.00
2022-12-25T02:09:48.302Z,99683.66
2022-12-25T02:10:00.300Z,99681.91
2022-12-25T02:10:12.857Z,99681.91
2022-12-25T02:10:25.271Z,99675.81
2022-12-25T02:10:39.143Z,99680.91
2022-12-25T02:10:51.166Z,99680.00
2022-12-25T02:11:03.212Z,99684.31
2022-12-25T02:11:35.075Z,99674.75
2022-12-25T02:11:59.263Z,99675.63
2022-12-25T02:12:20.069Z,99672.91
2022-12-25T02:12:34.831Z,99675.50
2022-12-25T02:12:48.803Z,99674.66
2022-12-25T02:13:01.833Z,99678.91
2022-12-25T02:13:17.409Z,99678.91
2022-12-25T02:13:29.437Z,99677.22
2022-12-25T02:13:41.412Z,99672.03
2022-12-25T02:13:53.357Z,99677.31
2022-12-25T02:14:05.287Z,99680.81
2022-12-25T02:14:17.267Z,99669.63
2022-12-25T02:14:32.750Z,99671.31
2022-12-25T02:14:45.343Z,99671.22
2022-12-25T02:15:06.099Z,99671.25
2022-12-25T02:15:22.148Z,99679.91
2022-12-25T02:15:47.197Z,99679.94
2022-12-25T02:16:13.254Z,99678.91
2022-12-25T02:16:29.908Z,99670.22
2022-12-25T02:16:57.292Z,99675.44
2022-12-25T02:17:19.739Z,99675.31
2022-12-25T02:17:37.516Z,99671.84
2022-12-25T02:18:00.967Z,99678.63
2022-12-25T02:18:31.420Z,99676.81
2022-12-25T02:18:51.828Z,99674.22
2022-12-25T02:19:25.545Z,99677.63
2022-12-25T02:19:53.158Z,99678.44
2022-12-25T02:20:13.796Z,99672.28
2022-12-25T02:20:57.411Z,99674.84
2022-12-25T02:21:21.285Z,99679.13
2022-12-25T02:22:23.552Z,99680.78
2022-12-25T02:23:21.498Z,99674.63
2022-12-25T02:23:40.096Z,99676.31
2022-12-25T02:24:17.507Z,99668.50
2022-12-25T02:24:57.317Z,99675.63
2022-12-25T02:26:00.235Z,99677.38
2022-12-25T02:26:49.659Z,99676.44
2022-12-25T02:27:11.038Z,99679.91
2022-12-25T02:27:41.477Z,99678.13
2022-12-25T02:27:56.309Z,99676.44
2022-12-25T02:28:21.528Z,99676.50
2022-12-25T02:28:46.129Z,99675.63
2022-12-25T02:29:23.384Z,99672.91
2022-12-25T02:30:08.557Z,99667.63
2022-12-25T02:30:20.663Z,99671.88
2022-12-25T02:30:40.515Z,99669.22
2022-12-25T02:31:03.807Z,99667.38
2022-12-25T02:31:37.633Z,99668.22
2022-12-25T02:32:05.505Z,99662.97
2022-12-25T02:32:31.117Z,99658.63
2022-12-25T02:32:51.127Z,99655.13
2022-12-25T02:33:32.049Z,99659.41
2022-12-25T02:34:03.478Z,99653.41
2022-12-25T02:34:19.443Z,99649.94
2022-12-25T02:34:57.605Z,99656.03
2022-12-25T02:35:21.224Z,99651.75
2022-12-25T02:35:33.268Z,99650.03
2022-12-25T02:35:53.377Z,99652.81
2022-12-25T02:36:10.315Z,99654.59
2022-12-25T02:36:27.275Z,99648.50
2022-12-25T02:36:45.018Z,99650.28
2022-12-25T02:37:14.881Z,99657.13
2022-12-25T02:37:35.795Z,99652.78
2022-12-25T02:37:57.092Z,99648.44
2022-12-25T02:38:20.163Z,99650.97
2022-12-25T02:38:38.071Z,99653.53
2022-12-25T02:39:17.229Z,99653.53
2022-12-25T02:39:59.244Z,99653.53
2022-12-25T02:40:38.486Z,99653.41
2022-12-25T02:40:57.253Z,99653.41
2022-12-25T02:41:16.096Z,99654.22
2022-12-25T02:41:34.048Z,99658.53
2022-12-25T02:41:48.915Z,99655.00
2022-12-25T02:42:07.186Z,99650.72
2022-12-25T02:42:48.148Z,99656.72
2022-12-25T02:43:26.414Z,99651.41
2022-12-25T02:44:15.523Z,99659.03
2022-12-25T02:44:48.256Z,99660.72
2022-12-25T02:45:19.220Z,99665.00
2022-12-25T02:46:14.326Z,99658.91
2022-12-25T02:46:47.775Z,99670.19
2022-12-25T02:47:19.672Z,99661.50
2022-12-25T02:47:51.530Z,99661.50
2022-12-25T02:48:23.800Z,99661.56
2022-12-25T02:49:10.752Z,99659.00
2022-12-25T02:49:44.000Z,99661.50
2022-12-25T02:50:16.368Z,99661.44
2022-12-25T02:50:47.199Z,99660.53
2022-12-25T02:51:22.114Z,99663.09
2022-12-25T02:51:57.695Z,99668.50
2022-12-25T02:52:31.010Z,99660.75
2022-12-25T02:53:05.347Z,99660.00
2022-12-25T02:53:35.634Z,99657.56
2022-12-25T02:54:07.907Z,99652.38
2022-12-25T02:54:45.675Z,99657.66
2022-12-25T02:55:24.800Z,99652.31
2022-12-25T02:55:58.042Z,99653.31
2022-12-25T02:56:29.385Z,99647.13
2022-12-25T02:57:03.126Z,99647.03
2022-12-25T02:57:36.864Z,99647.91
2022-12-25T02:58:10.716Z,99644.28
2022-12-25T02:58:44.655Z,99643.44
2022-12-25T02:59:15.575Z,99639.06
2022-12-25T02:59:48.531Z,99643.31
2022-12-25T03:00:20.886Z,99638.88
2022-12-25T03:00:55.208Z,99637.94
2022-12-25T03:01:31.579Z,99635.13
2022-12-25T03:02:03.533Z,99627.22
2022-12-25T03:02:36.606Z,99631.41
2022-12-25T03:03:08.506Z,99623.72
2022-12-25T03:03:42.963Z,99634.00
2022-12-25T03:04:18.819Z,99627.00
2022-12-25T03:04:51.240Z,99623.59
2022-12-25T03:05:28.008Z,99624.41
2022-12-25T03:06:01.121Z,99626.03
2022-12-25T03:06:34.035Z,99619.09
2022-12-25T03:07:03.902Z,99623.38
2022-12-25T03:07:21.775Z,99618.19
2022-12-25T03:07:36.827Z,99622.41